Time;durP1;ratioP1;P1;durP2;ratioP2;P2;SDS_P1;SDS_P2;PMS_P1;PMS_P2;Temp;Humidity;BMP_temperature;BMP_pressure;BME280_temperature;BME280_humidity;BME280_pressure;Samples;Min_cycle;Max_cycle;Signal;HPM_P1;HPM_P2
2022/12/20 00:00:45;;;;;;;;;;;9.00;99.90;;;;;;5071644;28;20049;-74
2022/12/20 00:03:11;;;;;;;6.50;2.85;;;9.00;99.90;;;;;;5054006;28;19926;-74
2022/12/20 00:05:38;;;;;;;6.00;3.03;;;8.90;99.90;;;;;;5067982;28;20052;-74
2022/12/20 00:08:05;;;;;;;6.30;3.17;;;8.90;99.90;;;;;;5070731;28;20040;-74
2022/12/20 00:10:42;;;;;;;5.07;2.60;;;8.90;99.90;;;;;;5051123;28;20052;-74
2022/12/20 00:13:09;;;;;;;5.45;2.50;;;8.80;99.90;;;;;;5034744;28;20124;-74
2022/12/20 00:15:35;;;;;;;8.02;3.22;;;8.80;99.90;;;;;;5051446;28;20107;-74
2022/12/20 00:18:01;;;;;;;7.47;2.88;;;8.80;99.90;;;;;;5040583;28;20478;-74
2022/12/20 00:20:27;;;;;;;6.70;3.13;;;8.80;99.90;;;;;;5052503;28;20084;-74
2022/12/20 00:22:53;;;;;;;5.75;2.70;;;8.80;99.90;;;;;;5070569;28;20053;-74
2022/12/20 00:25:19;;;;;;;8.85;3.17;;;8.80;99.90;;;;;;5071153;28;20051;-74
2022/12/20 00:27:46;;;;;;;6.03;2.63;;;8.80;99.90;;;;;;5069695;28;20110;-74
2022/12/20 00:30:13;;;;;;;5.47;2.45;;;8.90;99.90;;;;;;5053516;28;20460;-74
2022/12/20 00:32:39;;;;;;;9.07;2.80;;;8.90;99.90;;;;;;5070364;28;20087;-74
2022/12/20 00:35:05;;;;;;;4.95;2.47;;;9.00;99.90;;;;;;5071588;28;20405;-74
2022/12/20 00:37:30;;;;;;;5.13;3.03;;;9.00;99.90;;;;;;5070766;28;20052;-74
2022/12/20 00:39:56;;;;;;;4.13;2.38;;;9.10;99.90;;;;;;5053301;28;20059;-74
2022/12/20 00:42:22;;;;;;;9.25;2.92;;;9.10;99.90;;;;;;5052507;28;20097;-74
2022/12/20 00:44:48;;;;;;;5.18;2.50;;;9.10;99.90;;;;;;5071390;28;20055;-74
2022/12/20 00:47:13;;;;;;;7.20;2.65;;;9.20;99.90;;;;;;5071261;28;20040;-74
2022/12/20 00:49:39;;;;;;;4.28;2.38;;;9.30;99.90;;;;;;5071244;28;20129;-74
2022/12/20 00:52:05;;;;;;;5.45;2.45;;;9.30;99.90;;;;;;5059831;28;20052;-74
2022/12/20 00:54:31;;;;;;;5.68;2.80;;;9.30;99.90;;;;;;5058767;28;20055;-74
2022/12/20 00:56:56;;;;;;;6.20;2.63;;;9.40;99.90;;;;;;5032948;28;20727;-74
2022/12/20 00:59:22;;;;;;;7.60;3.00;;;9.40;99.90;;;;;;5050655;28;20076;-74
2022/12/20 01:01:49;;;;;;;4.97;2.70;;;9.30;99.90;;;;;;5050867;28;20045;-74
2022/12/20 01:04:14;;;;;;;4.80;2.55;;;9.30;99.90;;;;;;5051434;28;20045;-74
2022/12/20 01:06:40;;;;;;;4.28;2.50;;;9.30;99.90;;;;;;5062926;28;20093;-74
2022/12/20 01:09:06;;;;;;;6.88;2.90;;;9.30;99.90;;;;;;5050188;28;20049;-74
2022/12/20 01:11:34;;;;;;;6.90;2.70;;;9.30;99.90;;;;;;5050255;28;20067;-74
2022/12/20 01:14:20;;;;;;;5.15;2.25;;;9.20;99.90;;;;;;5050930;28;20063;-74
2022/12/20 01:16:46;;;;;;;5.57;2.30;;;9.30;99.90;;;;;;5049700;28;20564;-74
2022/12/20 01:19:16;;;;;;;5.97;2.60;;;9.30;99.90;;;;;;5051260;28;20053;-74
2022/12/20 01:21:45;;;;;;;5.07;2.78;;;9.30;99.90;;;;;;5054775;28;20537;-74
2022/12/20 01:24:15;;;;;;;3.35;1.90;;;9.40;99.90;;;;;;5049984;28;20106;-74
2022/12/20 01:26:41;;;;;;;5.13;2.58;;;9.30;99.90;;;;;;5069768;28;20053;-74
2022/12/20 01:29:08;;;;;;;5.35;2.58;;;9.30;99.90;;;;;;5052712;28;20041;-74
2022/12/20 01:31:33;;;;;;;;;;;9.40;99.90;;;;;;5052120;28;20123;-74
2022/12/20 01:34:00;;;;;;;6.00;2.35;;;9.40;99.90;;;;;;5053345;28;20007;-74
2022/12/20 01:36:28;;;;;;;5.20;2.47;;;9.50;99.90;;;;;;5065441;28;20532;-74
2022/12/20 01:39:00;;;;;;;6.40;2.67;;;9.50;99.90;;;;;;5062124;28;20048;-74
2022/12/20 01:41:28;;;;;;;6.70;2.67;;;9.50;99.90;;;;;;5069655;28;20127;-74
2022/12/20 01:44:06;;;;;;;3.20;2.05;;;9.50;99.90;;;;;;5070185;28;20040;-74
2022/12/20 01:46:35;;;;;;;6.30;3.00;;;9.40;99.90;;;;;;5052107;28;20060;-74
2022/12/20 01:49:04;;;;;;;4.78;2.42;;;9.50;99.90;;;;;;5071021;28;20498;-74
2022/12/20 01:51:33;;;;;;;4.32;2.25;;;9.50;99.90;;;;;;5051794;28;20450;-74
2022/12/20 01:54:09;;;;;;;7.40;2.47;;;9.40;99.90;;;;;;5070700;28;20103;-74
2022/12/20 01:56:36;;;;;;;6.18;2.42;;;9.40;99.90;;;;;;5063209;28;20135;-74
2022/12/20 01:59:02;;;;;;;6.85;2.83;;;9.50;99.90;;;;;;5070389;28;20144;-74
2022/12/20 02:01:28;;;;;;;3.97;2.15;;;9.30;99.90;;;;;;5027415;28;20159;-74
2022/12/20 02:03:55;;;;;;;5.68;2.67;;;9.40;99.90;;;;;;5070509;28;20128;-74
2022/12/20 02:06:23;;;;;;;6.03;2.20;;;9.40;99.90;;;;;;5069911;28;20120;-74
2022/12/20 02:08:51;;;;;;;4.70;2.10;;;9.40;99.90;;;;;;5069037;28;20082;-74
2022/12/20 02:11:42;;;;;;;4.90;2.22;;;9.40;99.90;;;;;;5070006;28;20482;-74
2022/12/20 02:14:22;;;;;;;5.68;2.67;;;9.50;99.90;;;;;;5068740;28;20056;-74
2022/12/20 02:17:18;;;;;;;4.43;2.08;;;9.50;99.90;;;;;;5051703;28;20754;-74
2022/12/20 02:20:15;;;;;;;4.28;2.33;;;9.50;99.90;;;;;;5032219;28;20391;-74
2022/12/20 02:23:02;;;;;;;3.80;1.97;;;9.50;99.90;;;;;;5048938;28;20504;-74
2022/12/20 02:25:49;;;;;;;;;;;9.60;99.90;;;;;;5032795;28;20520;-74
2022/12/20 02:28:40;;;;;;;5.55;2.20;;;9.60;99.90;;;;;;5050578;28;19925;-74
2022/12/20 02:31:11;;;;;;;5.50;2.25;;;9.60;99.90;;;;;;4995058;28;20061;-74
2022/12/20 02:33:40;;;;;;;5.07;2.42;;;9.60;99.90;;;;;;5046127;28;20060;-74
2022/12/20 02:36:06;;;;;;;4.00;2.08;;;9.70;99.90;;;;;;5073460;28;20052;-74
2022/12/20 02:38:35;;;;;;;3.97;2.15;;;9.70;99.90;;;;;;5055809;28;20053;-74
2022/12/20 02:41:22;;;;;;;4.85;2.30;;;9.60;99.90;;;;;;5055286;28;20052;-74
2022/12/20 02:46:35;;;;;;;5.13;2.78;;;9.60;99.90;;;;;;5041584;28;19970;-74
2022/12/20 02:49:10;;;;;;;5.25;2.42;;;9.60;99.90;;;;;;5054149;28;20453;-74
2022/12/20 02:51:37;;;;;;;4.05;2.20;;;9.60;99.90;;;;;;5057656;28;20053;-74
2022/12/20 02:54:03;;;;;;;3.80;1.95;;;9.70;99.90;;;;;;5073911;28;20040;-74
2022/12/20 02:56:48;;;;;;;4.53;2.20;;;9.70;99.90;;;;;;5060465;28;20052;-74
2022/12/20 02:59:23;;;;;;;3.60;2.03;;;9.70;99.90;;;;;;5053609;28;20045;-74
2022/12/20 03:01:54;;;;;;;6.97;2.10;;;9.70;99.90;;;;;;5052704;28;20049;-75
2022/12/20 03:04:24;;;;;;;4.05;1.73;;;9.70;99.90;;;;;;5062139;28;20036;-74
2022/12/20 03:07:04;;;;;;;4.38;2.25;;;9.60;99.90;;;;;;5071366;28;20044;-74
2022/12/20 03:09:31;;;;;;;4.10;2.03;;;9.60;99.90;;;;;;5073739;28;20044;-74
2022/12/20 03:11:57;;;;;;;5.28;2.10;;;9.60;99.90;;;;;;5072968;28;20044;-74
2022/12/20 03:14:23;;;;;;;3.75;1.90;;;9.60;99.90;;;;;;5071269;28;20037;-74
2022/12/20 03:16:49;;;;;;;4.47;2.20;;;9.70;99.90;;;;;;5034356;28;20057;-74
2022/12/20 03:19:15;;;;;;;4.80;2.63;;;9.70;99.90;;;;;;5035423;28;20053;-74
2022/12/20 03:21:41;;;;;;;5.68;2.58;;;9.70;99.90;;;;;;5052516;28;20102;-74
2022/12/20 03:24:07;;;;;;;5.43;2.13;;;9.60;99.90;;;;;;5052138;28;20116;-74
2022/12/20 03:26:33;;;;;;;5.18;2.30;;;9.60;99.90;;;;;;5052752;28;20040;-74
2022/12/20 03:28:59;;;;;;;6.60;2.92;;;9.50;99.90;;;;;;5054976;28;20055;-74
2022/12/20 03:31:24;;;;;;;4.35;2.20;;;9.40;99.90;;;;;;5057530;28;20130;-74
2022/12/20 03:33:50;;;;;;;4.97;2.50;;;9.40;99.90;;;;;;5053628;28;20052;-74
2022/12/20 03:36:15;;;;;;;5.43;2.72;;;9.40;99.90;;;;;;5034851;28;20490;-74
2022/12/20 03:38:41;;;;;;;5.57;2.10;;;9.30;99.90;;;;;;5057673;28;20087;-74
2022/12/20 03:41:07;;;;;;;4.25;2.47;;;9.40;99.90;;;;;;5072639;28;20045;-74
2022/12/20 03:43:32;;;;;;;5.90;2.70;;;9.30;99.90;;;;;;5072302;28;20080;-74
2022/12/20 03:45:58;;;;;;;7.97;2.72;;;9.30;99.90;;;;;;5071720;28;20066;-74
2022/12/20 03:48:24;;;;;;;5.10;2.50;;;9.40;99.90;;;;;;5072559;28;20060;-74
2022/12/20 03:50:49;;;;;;;6.07;2.63;;;9.30;99.90;;;;;;5037759;28;20048;-74
2022/12/20 03:53:15;;;;;;;4.35;2.30;;;9.30;99.90;;;;;;5072795;28;20445;-74
2022/12/20 03:55:40;;;;;;;4.55;2.38;;;9.30;99.90;;;;;;5068849;28;20402;-74
2022/12/20 03:58:06;;;;;;;4.82;2.50;;;9.30;99.90;;;;;;5072640;28;20439;-74
2022/12/20 04:00:32;;;;;;;5.60;2.30;;;9.30;99.90;;;;;;5071893;28;20426;-74
2022/12/20 04:02:58;;;;;;;4.10;2.50;;;9.30;99.90;;;;;;5071386;28;20048;-74
2022/12/20 04:05:23;;;;;;;7.68;2.83;;;9.30;99.90;;;;;;5071374;28;20044;-74
2022/12/20 04:07:49;;;;;;;3.92;2.55;;;9.30;99.90;;;;;;5070457;28;20052;-74
2022/12/20 04:10:15;;;;;;;6.53;2.70;;;9.30;99.90;;;;;;5071151;28;20045;-74
2022/12/20 04:12:40;;;;;;;5.32;2.53;;;9.40;99.90;;;;;;5072178;28;20052;-74
2022/12/20 04:15:06;;;;;;;4.60;2.63;;;9.30;99.90;;;;;;5072017;28;20045;-74
2022/12/20 04:17:32;;;;;;;6.13;2.78;;;9.30;99.90;;;;;;5067921;28;20068;-74
2022/12/20 04:20:17;;;;;;;5.50;2.75;;;9.30;99.90;;;;;;5071654;28;20041;-74
2022/12/20 04:22:47;;;;;;;6.18;2.70;;;9.30;99.90;;;;;;5071254;28;20059;-74
2022/12/20 04:25:12;;;;;;;6.72;2.50;;;9.30;99.90;;;;;;5056188;28;20048;-74
2022/12/20 04:27:38;;;;;;;7.43;2.83;;;9.30;99.90;;;;;;5071172;28;20040;-74
2022/12/20 04:30:04;;;;;;;6.28;2.45;;;9.30;99.90;;;;;;5071155;28;20059;-74
2022/12/20 04:32:30;;;;;;;6.05;2.80;;;9.30;99.90;;;;;;5071373;28;20052;-74
2022/12/20 04:34:55;;;;;;;5.72;2.47;;;9.40;99.90;;;;;;5071571;28;20051;-74
2022/12/20 04:37:21;;;;;;;6.45;2.78;;;9.30;99.90;;;;;;5071457;28;20490;-74
2022/12/20 04:39:47;;;;;;;5.75;2.75;;;9.40;99.90;;;;;;5070993;28;20099;-73
2022/12/20 04:42:13;;;;;;;;;;;9.40;99.90;;;;;;5061958;28;20049;-74
2022/12/20 04:44:38;;;;;;;7.47;2.70;;;9.40;99.90;;;;;;5033642;28;19924;-74
2022/12/20 04:47:04;;;;;;;5.05;2.50;;;9.40;99.90;;;;;;5051161;28;20041;-74
2022/12/20 04:49:30;;;;;;;4.20;2.30;;;9.40;99.90;;;;;;5051874;28;20056;-74
2022/12/20 04:53:46;;;;;;;5.63;2.75;;;9.40;99.90;;;;;;5033080;28;20087;-74
2022/12/20 04:54:41;;;;;;;5.30;2.67;;;9.50;99.90;;;;;;5034041;28;20057;-74
2022/12/20 04:57:08;;;;;;;5.50;2.55;;;9.40;99.90;;;;;;5050598;28;20052;-74
2022/12/20 04:59:34;;;;;;;6.05;2.35;;;9.50;99.90;;;;;;5050884;28;20495;-74
2022/12/20 05:02:00;;;;;;;4.20;2.33;;;9.60;99.90;;;;;;5050351;28;20045;-74
2022/12/20 05:04:26;;;;;;;5.93;3.10;;;9.60;99.90;;;;;;5064849;28;20055;-74
2022/12/20 05:06:55;;;;;;;8.07;2.78;;;9.70;99.90;;;;;;5051087;28;20084;-74
2022/12/20 05:09:20;;;;;;;5.05;2.38;;;9.70;99.90;;;;;;5070433;28;20474;-74
2022/12/20 05:11:46;;;;;;;5.68;3.08;;;9.70;99.90;;;;;;5070451;28;20052;-74
2022/12/20 05:14:11;;;;;;;6.15;2.72;;;9.80;99.90;;;;;;5059749;28;20041;-74
2022/12/20 05:16:37;;;;;;;4.40;2.47;;;9.90;99.90;;;;;;5044020;28;20056;-74
2022/12/20 05:19:03;;;;;;;4.63;2.45;;;9.90;99.90;;;;;;5070486;28;20065;-74
2022/12/20 05:26:58;;;;;;;7.30;2.50;;;10.00;99.90;;;;;;5052536;28;20170;-74
2022/12/20 05:29:24;;;;;;;5.53;2.60;;;10.10;99.90;;;;;;5070635;28;20139;-74
2022/12/20 05:31:50;;;;;;;5.38;2.50;;;10.10;99.90;;;;;;5069869;28;20060;-74
2022/12/20 05:34:16;;;;;;;4.07;2.13;;;10.10;99.90;;;;;;5057544;28;20064;-74
2022/12/20 05:36:42;;;;;;;4.78;2.50;;;10.20;99.90;;;;;;5043077;28;20075;-74
2022/12/20 05:39:08;;;;;;;5.47;2.50;;;10.20;99.90;;;;;;5065034;28;20102;-74
2022/12/20 05:41:34;;;;;;;4.22;2.22;;;10.30;99.90;;;;;;5050306;28;20053;-75
2022/12/20 05:43:59;;;;;;;3.55;2.10;;;10.40;99.90;;;;;;5049485;28;20049;-74
2022/12/20 05:46:25;;;;;;;3.78;2.13;;;10.40;99.90;;;;;;5036113;28;20121;-74
2022/12/20 05:48:51;;;;;;;3.55;2.20;;;10.40;99.90;;;;;;5068532;28;20083;-74
2022/12/20 05:51:17;;;;;;;4.97;2.30;;;10.40;99.90;;;;;;5060600;28;20393;-74
2022/12/20 05:53:42;;;;;;;6.50;2.10;;;10.50;99.90;;;;;;5069899;28;20048;-74
2022/12/20 05:56:08;;;;;;;4.72;2.33;;;10.50;99.90;;;;;;5057385;28;20175;-74
2022/12/20 05:58:34;;;;;;;4.95;2.28;;;10.50;99.90;;;;;;5035024;28;20122;-74
2022/12/20 06:01:01;;;;;;;5.68;2.60;;;10.50;99.90;;;;;;5069318;28;20048;-74
2022/12/20 06:03:27;;;;;;;7.68;2.60;;;10.40;99.90;;;;;;5068852;28;20040;-74
2022/12/20 06:05:52;;;;;;;4.55;2.35;;;10.40;99.90;;;;;;5068688;28;20670;-74
2022/12/20 06:08:20;;;;;;;6.00;2.33;;;10.40;99.90;;;;;;5070074;28;20052;-74
2022/12/20 06:10:47;;;;;;;5.00;2.38;;;10.30;99.90;;;;;;5072738;28;20150;-74
2022/12/20 06:13:13;;;;;;;6.60;2.33;;;10.30;99.90;;;;;;5074872;28;20071;-75
2022/12/20 06:15:38;;;;;;;5.60;2.53;;;10.30;99.90;;;;;;5041896;28;20052;-75
2022/12/20 06:18:05;;;;;;;7.15;2.03;;;10.20;99.90;;;;;;5065809;28;20057;-75
2022/12/20 06:20:31;;;;;;;5.45;2.50;;;10.20;99.90;;;;;;5045899;28;20087;-74
2022/12/20 06:22:57;;;;;;;4.70;2.30;;;10.20;99.90;;;;;;5075109;28;20505;-75
2022/12/20 06:25:23;;;;;;;5.35;2.42;;;10.20;99.90;;;;;;5057997;28;20040;-75
2022/12/20 06:27:48;;;;;;;3.28;2.50;;;10.30;99.90;;;;;;5076280;28;20044;-75
2022/12/20 06:30:15;;;;;;;4.30;2.20;;;10.30;99.90;;;;;;5075762;28;20056;-74
2022/12/20 06:32:41;;;;;;;5.55;2.20;;;10.30;99.90;;;;;;5074508;28;20052;-75
2022/12/20 06:35:07;;;;;;;6.60;2.35;;;10.30;99.90;;;;;;5075727;28;20044;-75
2022/12/20 06:37:33;;;;;;;6.22;2.45;;;10.30;99.90;;;;;;5063425;28;20052;-75
2022/12/20 06:39:59;;;;;;;4.85;2.05;;;10.30;99.90;;;;;;5057547;28;20045;-74
2022/12/20 06:42:24;;;;;;;6.15;2.35;;;10.30;99.90;;;;;;5075388;28;20051;-75
2022/12/20 06:44:50;;;;;;;5.15;2.78;;;10.20;99.90;;;;;;5075050;28;20036;-74
2022/12/20 06:47:16;;;;;;;5.07;2.33;;;10.20;99.90;;;;;;5074598;28;20052;-74
2022/12/20 06:49:41;;;;;;;3.80;2.17;;;10.20;99.90;;;;;;5069823;28;20045;-74
2022/12/20 06:52:07;;;;;;;5.35;2.83;;;10.20;99.90;;;;;;5069934;28;20063;-74
2022/12/20 06:54:33;;;;;;;5.90;2.33;;;10.20;99.90;;;;;;5075252;28;20071;-74
2022/12/20 06:56:58;;;;;;;6.38;2.50;;;10.10;99.90;;;;;;5056790;28;20040;-74
2022/12/20 06:59:24;;;;;;;4.70;2.78;;;10.00;99.90;;;;;;5067299;28;20077;-75
2022/12/20 07:01:50;;;;;;;6.75;2.50;;;10.00;99.90;;;;;;5059067;28;20037;-75
2022/12/20 07:04:15;;;;;;;5.28;2.80;;;10.00;99.90;;;;;;5054993;28;20052;-74
2022/12/20 07:06:41;;;;;;;6.38;3.00;;;10.00;99.90;;;;;;5037271;28;20049;-75
2022/12/20 07:09:08;;;;;;;5.85;2.80;;;9.90;99.90;;;;;;5070572;28;20068;-75
2022/12/20 07:11:34;;;;;;;8.55;2.67;;;9.90;99.90;;;;;;5074417;28;20127;-74
2022/12/20 07:14:00;;;;;;;6.68;2.85;;;9.90;99.90;;;;;;5074736;28;20072;-74
2022/12/20 07:16:26;;;;;;;8.13;2.75;;;9.90;99.90;;;;;;5075175;28;20864;-75
2022/12/20 07:18:53;;;;;;;5.80;2.70;;;9.90;99.90;;;;;;5066727;28;20058;-75
2022/12/20 07:21:19;;;;;;;5.10;2.55;;;9.90;99.90;;;;;;5052786;28;20222;-74
2022/12/20 07:23:46;;;;;;;6.45;3.03;;;9.90;99.90;;;;;;5066723;28;20111;-75
2022/12/20 07:26:12;;;;;;;8.70;3.17;;;9.90;99.90;;;;;;5051399;28;20045;-74
2022/12/20 07:28:38;;;;;;;9.70;3.50;;;9.90;99.90;;;;;;5057027;28;20063;-74
2022/12/20 07:31:04;;;;;;;6.03;2.97;;;9.90;99.90;;;;;;5064985;28;20576;-78
2022/12/20 07:33:31;;;;;;;6.13;3.22;;;9.90;99.90;;;;;;5072192;28;20048;-78
2022/12/20 07:36:04;;;;;;;5.82;3.45;;;9.90;99.90;;;;;;5054108;28;20044;-76
2022/12/20 07:38:30;;;;;;;5.28;2.95;;;9.90;99.90;;;;;;5070543;28;20056;-76
2022/12/20 07:40:56;;;;;;;9.30;3.47;;;9.90;99.90;;;;;;5063173;28;20060;-76
2022/12/20 07:43:22;;;;;;;7.15;3.22;;;9.90;99.90;;;;;;5056284;28;20130;-76
2022/12/20 07:45:48;;;;;;;13.10;3.50;;;9.90;99.90;;;;;;5050434;28;20140;-76
2022/12/20 07:48:13;;;;;;;6.65;3.10;;;9.90;99.90;;;;;;5050866;28;20056;-76
2022/12/20 07:50:40;;;;;;;6.30;3.00;;;10.00;99.90;;;;;;5051808;28;20052;-76
2022/12/20 07:53:07;;;;;;;9.65;3.60;;;9.90;99.90;;;;;;5050475;28;20581;-77
2022/12/20 07:55:33;;;;;;;6.30;2.95;;;10.10;99.90;;;;;;5051223;28;20087;-76
2022/12/20 07:58:03;;;;;;;7.78;3.05;;;10.10;99.90;;;;;;5051744;28;20124;-77
2022/12/20 08:00:30;;;;;;;7.57;2.78;;;10.10;99.90;;;;;;5051197;28;20048;-76
2022/12/20 08:03:07;;;;;;;6.68;2.60;;;10.10;99.90;;;;;;5052670;28;20104;-76
2022/12/20 08:05:36;;;;;;;;;;;10.20;99.90;;;;;;5064525;28;20399;-77
2022/12/20 08:08:02;;;;;;;6.88;2.25;;;10.20;99.90;;;;;;5050962;28;19920;-76
2022/12/20 08:10:29;;;;;;;7.90;2.22;;;10.20;99.90;;;;;;5050893;28;20056;-77
2022/12/20 08:12:55;;;;;;;6.07;2.50;;;10.20;99.90;;;;;;5051397;28;20048;-77
2022/12/20 08:15:21;;;;;;;6.10;2.47;;;10.20;99.90;;;;;;5050219;28;20080;-77
2022/12/20 08:17:48;;;;;;;5.15;2.58;;;10.30;99.90;;;;;;5032984;28;20107;-76
2022/12/20 08:20:14;;;;;;;4.25;2.25;;;10.40;99.90;;;;;;5033071;28;20105;-79
2022/12/20 08:22:39;;;;;;;5.30;2.40;;;10.40;99.90;;;;;;5058626;28;20044;-75
2022/12/20 08:25:06;;;;;;;7.68;2.78;;;10.40;99.90;;;;;;5070608;28;20040;-80
2022/12/20 08:27:32;;;;;;;4.18;2.58;;;10.40;99.90;;;;;;5061523;28;20064;-76
2022/12/20 08:29:58;;;;;;;7.72;2.70;;;10.40;99.90;;;;;;5070765;28;20067;-76
2022/12/20 08:32:24;;;;;;;4.32;1.95;;;10.40;99.90;;;;;;5069609;28;20533;-76
2022/12/20 08:34:51;;;;;;;5.40;2.67;;;10.40;99.90;;;;;;5069768;28;20048;-77
2022/12/20 08:37:17;;;;;;;3.95;2.33;;;10.40;99.90;;;;;;5068541;28;20051;-78
2022/12/20 08:39:43;;;;;;;6.13;2.58;;;10.40;99.90;;;;;;5053286;28;20052;-77
2022/12/20 08:42:09;;;;;;;6.35;2.42;;;10.50;99.90;;;;;;5069860;28;20040;-76
2022/12/20 08:44:34;;;;;;;2.88;2.17;;;10.50;99.90;;;;;;5070253;28;20044;-69
2022/12/20 08:47:00;;;;;;;4.30;1.98;;;10.40;99.90;;;;;;5061382;28;20119;-70
2022/12/20 08:49:26;;;;;;;5.75;2.83;;;10.30;99.90;;;;;;5052535;28;20127;-69
2022/12/20 08:51:51;;;;;;;2.58;2.10;;;10.40;99.90;;;;;;5069913;28;20084;-68
2022/12/20 08:54:17;;;;;;;5.65;2.17;;;10.50;99.90;;;;;;5070001;28;20040;-69
2022/12/20 08:56:43;;;;;;;4.75;2.50;;;10.50;99.90;;;;;;5070142;28;20397;-69
2022/12/20 08:59:08;;;;;;;5.68;2.90;;;10.50;99.90;;;;;;5051719;28;20043;-71
2022/12/20 09:01:34;;;;;;;4.90;2.20;;;10.50;99.90;;;;;;5070147;28;20082;-68
2022/12/20 09:04:00;;;;;;;3.75;1.85;;;10.60;99.90;;;;;;5070394;28;20048;-68
2022/12/20 09:06:26;;;;;;;4.55;2.30;;;10.60;99.90;;;;;;5063673;28;20079;-73
2022/12/20 09:08:52;;;;;;;7.30;2.67;;;10.70;99.90;;;;;;5065806;28;20045;-73
2022/12/20 09:11:20;;;;;;;4.38;2.20;;;10.70;99.90;;;;;;5067207;28;20046;-72
2022/12/20 09:13:48;;;;;;;4.40;2.22;;;10.70;99.90;;;;;;5049981;28;20452;-73
2022/12/20 09:16:16;;;;;;;10.80;2.85;;;10.60;99.90;;;;;;5066948;28;20076;-72
2022/12/20 09:18:42;;;;;;;4.72;2.38;;;10.60;99.90;;;;;;5067901;28;20449;-73
2022/12/20 09:21:10;;;;;;;8.65;2.65;;;10.50;99.90;;;;;;5067473;28;20048;-73
2022/12/20 09:23:36;;;;;;;6.82;2.30;;;10.60;99.90;;;;;;5065432;28;20043;-72
2022/12/20 09:26:07;;;;;;;4.25;2.25;;;10.50;99.90;;;;;;5067627;28;20044;-72
2022/12/20 09:28:33;;;;;;;7.57;2.60;;;10.50;99.90;;;;;;5065743;28;20113;-75
2022/12/20 09:31:00;;;;;;;7.15;2.53;;;10.50;99.90;;;;;;5066105;28;20131;-72
2022/12/20 09:33:27;;;;;;;12.73;2.40;;;10.50;99.90;;;;;;5066528;28;20067;-73
2022/12/20 09:35:53;;;;;;;4.30;2.08;;;10.50;99.90;;;;;;5067146;28;20052;-72
2022/12/20 09:38:19;;;;;;;2.92;2.05;;;10.50;99.90;;;;;;5064508;28;20076;-72
2022/12/20 09:40:48;;;;;;;3.63;2.25;;;10.50;99.90;;;;;;5062982;28;20087;-72
2022/12/20 09:43:15;;;;;;;6.88;2.20;;;10.40;99.90;;;;;;5048702;28;20040;-73
2022/12/20 09:45:43;;;;;;;6.45;2.30;;;10.40;99.90;;;;;;5063801;28;20457;-71
2022/12/20 09:48:20;;;;;;;4.95;2.22;;;10.50;99.90;;;;;;5061365;28;20040;-72
2022/12/20 09:51:03;;;;;;;4.32;2.25;;;10.50;99.90;;;;;;5045438;28;20300;-72
2022/12/20 09:54:13;;;;;;;6.72;2.30;;;10.40;99.90;;;;;;5040596;28;20040;-73
2022/12/20 09:57:04;;;;;;;5.78;2.38;;;10.40;99.90;;;;;;5066914;28;20044;-72
2022/12/20 09:59:34;;;;;;;4.20;2.85;;;10.40;99.90;;;;;;5048125;28;20044;-72
2022/12/20 10:01:59;;;;;;;9.00;2.75;;;10.40;99.90;;;;;;5065998;28;20063;-72
2022/12/20 10:04:28;;;;;;;5.05;2.47;;;10.30;99.90;;;;;;5066279;28;20037;-72
2022/12/20 10:07:08;;;;;;;4.40;2.40;;;10.30;99.90;;;;;;5065862;28;20080;-72
2022/12/20 10:09:36;;;;;;;6.13;2.60;;;10.20;99.90;;;;;;5048875;28;20052;-72
2022/12/20 10:12:31;;;;;;;6.28;2.47;;;10.20;99.90;;;;;;5062702;28;20444;-72
2022/12/20 10:15:11;;;;;;;6.32;2.83;;;10.10;99.90;;;;;;5064192;28;20486;-71
2022/12/20 10:18:16;;;;;;;8.07;2.58;;;10.00;99.90;;;;;;5063806;28;20052;-72
2022/12/20 10:20:57;;;;;;;9.20;2.40;;;9.90;99.90;;;;;;5062251;28;20060;-74
2022/12/20 10:23:56;;;;;;;5.38;2.92;;;9.80;99.90;;;;;;5044102;28;20076;-74
2022/12/20 10:26:22;;;;;;;7.97;3.25;;;9.70;99.90;;;;;;5065577;28;20445;-77
2022/12/20 10:28:49;;;;;;;4.68;2.88;;;9.70;99.90;;;;;;5068284;28;20095;-74
2022/12/20 10:31:17;;;;;;;8.88;3.28;;;9.60;99.90;;;;;;5067019;28;20060;-74
2022/12/20 10:33:44;;;;;;;6.25;2.70;;;9.60;99.90;;;;;;5067903;28;20033;-76
2022/12/20 10:36:22;;;;;;;6.65;2.90;;;9.60;99.90;;;;;;5067199;28;20564;-74
2022/12/20 10:38:51;;;;;;;5.13;2.60;;;9.60;99.90;;;;;;5068910;28;20119;-73
2022/12/20 10:41:20;;;;;;;5.13;3.00;;;9.60;99.90;;;;;;5068009;28;20446;-74
2022/12/20 10:44:15;;;;;;;6.75;2.22;;;9.60;99.90;;;;;;5050497;28;20080;-74
2022/12/20 10:46:56;;;;;;;8.13;3.22;;;9.60;99.90;;;;;;5064367;28;20067;-75
2022/12/20 10:49:31;;;;;;;6.28;2.50;;;9.60;99.90;;;;;;5066374;28;20040;-75
2022/12/20 10:52:17;;;;;;;5.97;2.45;;;9.60;99.90;;;;;;5049069;28;20052;-76
2022/12/20 10:54:46;;;;;;;5.97;2.97;;;9.60;99.90;;;;;;5066717;28;20049;-75
2022/12/20 10:57:27;;;;;;;5.22;2.50;;;9.60;99.90;;;;;;5068244;28;20044;-76
2022/12/20 10:59:59;;;;;;;7.18;3.05;;;9.50;99.90;;;;;;5053246;28;20045;-75
2022/12/20 11:02:38;;;;;;;5.78;2.70;;;9.60;99.90;;;;;;5070631;28;20087;-75
2022/12/20 11:05:10;;;;;;;6.38;3.08;;;9.60;99.90;;;;;;5071287;28;20482;-75
2022/12/20 11:07:50;;;;;;;6.88;2.70;;;9.60;99.90;;;;;;5070115;28;20048;-75
2022/12/20 11:10:22;;;;;;;5.60;2.60;;;9.60;99.90;;;;;;5053411;28;20055;-75
2022/12/20 11:12:56;;;;;;;6.20;3.15;;;9.70;99.90;;;;;;5071525;28;20076;-77
2022/12/20 11:15:33;;;;;;;4.20;2.55;;;9.70;99.90;;;;;;5068412;28;20127;-75
2022/12/20 11:18:29;;;;;;;6.35;2.83;;;9.80;99.90;;;;;;5052579;28;20444;-76
2022/12/20 11:21:22;;;;;;;6.15;3.08;;;9.80;99.90;;;;;;5051906;28;20083;-75
2022/12/20 11:24:16;;;;;;;6.60;3.25;;;9.80;99.90;;;;;;5052696;28;20055;-74
2022/12/20 11:26:59;;;;;;;10.50;3.58;;;9.80;99.90;;;;;;5036563;28;20209;-75
2022/12/20 11:30:01;;;;;;;6.50;2.58;;;9.80;99.90;;;;;;5070123;28;20040;-76
2022/12/20 11:32:52;;;;;;;6.72;3.30;;;9.80;99.90;;;;;;5069393;28;20070;-76
2022/12/20 11:35:25;;;;;;;4.60;2.55;;;9.80;99.90;;;;;;5070776;28;20486;-74
2022/12/20 11:38:09;;;;;;;5.43;2.80;;;9.80;99.90;;;;;;5068369;28;20055;-76
2022/12/20 11:40:49;;;;;;;4.90;2.55;;;9.80;99.90;;;;;;5067711;28;20406;-76
2022/12/20 11:43:39;;;;;;;6.03;2.95;;;9.80;99.90;;;;;;5071056;28;20072;-75
2022/12/20 11:46:20;;;;;;;7.93;2.88;;;9.80;99.90;;;;;;5070465;28;20048;-76
2022/12/20 11:49:11;;;;;;;5.30;2.60;;;9.80;99.90;;;;;;5070568;28;20045;-76
2022/12/20 11:51:47;;;;;;;6.07;2.65;;;9.70;99.90;;;;;;5064248;28;20048;-77
2022/12/20 11:54:44;;;;;;;8.82;3.15;;;9.70;99.90;;;;;;5070781;28;20044;-74
2022/12/20 11:57:19;;;;;;;8.00;3.00;;;9.70;99.90;;;;;;5022755;28;20064;-77
2022/12/20 11:59:54;;;;;;;8.45;3.35;;;9.70;99.90;;;;;;5069455;28;20040;-75
2022/12/20 12:02:37;;;;;;;5.18;2.70;;;9.80;99.90;;;;;;5051398;28;20054;-76
2022/12/20 12:05:15;;;;;;;5.65;2.72;;;9.80;99.90;;;;;;5070315;28;20513;-76
2022/12/20 12:07:45;;;;;;;5.95;3.22;;;9.70;99.90;;;;;;5057719;28;20052;-76
2022/12/20 12:10:31;;;;;;;6.60;2.72;;;9.70;99.90;;;;;;5069349;28;20152;-78
2022/12/20 12:13:16;;;;;;;8.02;3.05;;;9.70;99.90;;;;;;5070539;28;20159;-77
2022/12/20 12:16:16;;;;;;;6.97;2.90;;;9.60;99.90;;;;;;5066906;28;20621;-69
2022/12/20 12:18:43;;;;;;;10.75;2.83;;;9.70;99.90;;;;;;5068393;28;20063;-76
2022/12/20 12:21:43;;;;;;;7.65;3.00;;;9.70;99.90;;;;;;5066709;28;20056;-75
2022/12/20 12:24:41;;;;;;;7.75;3.15;;;9.70;99.90;;;;;;5050246;28;20041;-74
2022/12/20 12:27:19;;;;;;;6.75;3.08;;;9.70;99.90;;;;;;5053517;28;20053;-74
2022/12/20 12:29:45;;;;;;;8.95;2.88;;;9.70;99.90;;;;;;5055776;28;20071;-74
2022/12/20 12:32:16;;;;;;;8.45;3.10;;;9.70;99.90;;;;;;5068526;28;20105;-74
2022/12/20 12:35:00;;;;;;;13.55;3.97;;;9.70;99.90;;;;;;5068391;28;20045;-74
2022/12/20 12:37:26;;;;;;;5.60;3.15;;;9.70;99.90;;;;;;5050090;28;20052;-74
2022/12/20 12:40:16;;;;;;;8.18;3.10;;;9.70;99.90;;;;;;5068657;28;20056;-75
2022/12/20 12:43:01;;;;;;;13.93;3.42;;;9.80;99.90;;;;;;5067536;28;20091;-74
2022/12/20 12:45:45;;;;;;;6.50;3.03;;;9.80;99.90;;;;;;5068360;28;20509;-73
2022/12/20 12:48:42;;;;;;;7.75;3.28;;;9.80;99.90;;;;;;5068605;28;20057;-71
2022/12/20 12:51:09;;;;;;;6.75;2.83;;;9.80;99.90;;;;;;5067772;28;20056;-75
2022/12/20 12:53:36;;;;;;;7.88;3.47;;;9.80;99.90;;;;;;5067479;28;20052;-76
2022/12/20 12:56:25;;;;;;;5.95;3.03;;;9.70;99.90;;;;;;5067433;28;20048;-74
2022/12/20 12:59:06;;;;;;;6.45;3.50;;;9.80;99.90;;;;;;5056078;28;20056;-75
2022/12/20 13:01:49;;;;;;;5.68;3.25;;;9.80;99.90;;;;;;5049411;28;20044;-75
2022/12/20 13:04:21;;;;;;;6.88;3.20;;;9.80;99.90;;;;;;5067314;28;20123;-75
2022/12/20 13:06:46;;;;;;;8.68;3.72;;;9.80;99.90;;;;;;5066246;28;20521;-75
2022/12/20 13:09:24;;;;;;;9.43;3.53;;;9.80;99.90;;;;;;5068062;28;20072;-76
2022/12/20 13:11:52;;;;;;;7.13;3.70;;;9.80;99.90;;;;;;5061955;28;20048;-75
2022/12/20 13:14:23;;;;;;;6.13;3.40;;;9.80;99.90;;;;;;5065893;28;20040;-76
2022/12/20 13:16:50;;;;;;;8.85;3.38;;;9.80;99.90;;;;;;5046399;28;20059;-75
2022/12/20 13:20:25;;;;;;;8.18;4.03;;;9.70;99.90;;;;;;5069010;28;20413;-75
2022/12/20 13:23:11;;;;;;;7.75;3.60;;;9.80;99.90;;;;;;5060523;28;20118;-75